Time;durP1;ratioP1;P1;durP2;ratioP2;P2;SDS_P1;SDS_P2;PMS_P1;PMS_P2;Temp;Humidity;BMP_temperature;BMP_pressure;BME280_temperature;BME280_humidity;BME280_pressure;Samples;Min_cycle;Max_cycle;Signal;HPM_P1;HPM_P2
2023/09/06 00:00:44;;;;;;;11.07;6.38;;;;;;;22.85;46.24;101777.22;4978289;28;20057;-78
2023/09/06 00:03:14;;;;;;;10.52;6.72;;;;;;;22.75;46.71;101764.81;4976530;28;20057;-79
2023/09/06 00:05:42;;;;;;;11.00;7.18;;;;;;;22.78;46.20;101767.16;4983721;28;20132;-79
2023/09/06 00:08:12;;;;;;;11.45;7.10;;;;;;;22.74;46.31;101762.28;4975952;28;20390;-80
2023/09/06 00:10:41;;;;;;;13.55;6.82;;;;;;;22.79;46.21;101784.22;4968835;28;20408;-80
2023/09/06 00:13:14;;;;;;;12.60;6.78;;;;;;;22.58;46.74;101769.59;4982858;28;20053;-80
2023/09/06 00:15:42;;;;;;;16.80;6.78;;;;;;;22.50;46.88;101766.13;4984344;28;20057;-78
2023/09/06 00:18:11;;;;;;;12.50;6.80;;;;;;;22.56;46.84;101782.47;4978883;28;20843;-81
2023/09/06 00:20:38;;;;;;;12.02;7.30;;;;;;;22.46;46.37;101744.03;4951229;28;20365;-81
2023/09/06 00:23:08;;;;;;;9.45;6.72;;;;;;;22.60;46.56;101766.72;4973488;28;20049;-81
2023/09/06 00:25:37;;;;;;;16.25;7.22;;;;;;;22.60;46.38;101775.66;4980952;28;20501;-78
2023/09/06 00:28:05;;;;;;;14.13;7.03;;;;;;;22.52;46.34;101761.38;4974344;28;20463;-82
2023/09/06 00:30:33;;;;;;;16.13;7.88;;;;;;;22.53;46.46;101771.19;4988455;28;20042;-79
2023/09/06 00:33:05;;;;;;;14.63;6.88;;;;;;;22.57;46.32;101773.34;4977696;28;20042;-80
2023/09/06 00:35:33;;;;;;;13.95;6.57;;;;;;;22.40;46.59;101751.03;4985222;28;20767;-81
2023/09/06 00:38:06;;;;;;;15.30;7.38;;;;;;;22.48;46.31;101765.50;4985412;28;20284;-79
2023/09/06 00:40:36;;;;;;;16.38;7.65;;;;;;;22.57;46.39;101770.63;4986584;28;20162;-79
2023/09/06 00:43:05;;;;;;;13.80;7.82;;;;;;;22.39;46.72;101765.59;4994051;28;20053;-79
2023/09/06 00:45:44;;;;;;;13.05;7.35;;;;;;;22.47;46.65;101771.94;4980303;28;20128;-80
2023/09/06 00:48:22;;;;;;;15.95;6.95;;;;;;;22.24;46.95;101751.22;4989513;28;20059;-79
2023/09/06 00:50:51;;;;;;;12.65;7.18;;;;;;;22.26;46.77;101748.31;4987277;28;20046;-79
2023/09/06 00:53:20;;;;;;;9.93;6.85;;;;;;;22.13;46.96;101721.88;4987801;28;20248;-81
2023/09/06 00:55:48;;;;;;;12.80;6.70;;;;;;;21.81;46.52;101664.44;4978719;28;20452;-81
2023/09/06 00:58:18;;;;;;;13.00;7.05;;;;;;;21.82;46.61;101668.84;5001251;28;20489;-78
2023/09/06 01:00:48;;;;;;;13.70;7.28;;;;;;;22.40;46.54;101753.75;4980008;28;20057;-80
2023/09/06 01:03:16;;;;;;;17.20;7.85;;;;;;;21.96;46.28;101684.19;4993184;28;20206;-79
2023/09/06 01:06:16;;;;;;;12.73;6.93;;;;;;;22.29;46.58;101756.91;4950759;28;20144;-82
2023/09/06 01:08:46;;;;;;;16.10;7.03;;;;;;;22.31;46.52;101759.44;5005394;28;20560;-81
2023/09/06 01:11:21;;;;;;;13.90;7.70;;;;;;;22.33;46.47;101762.78;4984262;28;20057;-79
2023/09/06 01:13:50;;;;;;;16.15;8.05;;;;;;;21.73;46.56;101656.44;4983713;28;20222;-79
2023/09/06 01:16:32;;;;;;;12.20;7.07;;;;;;;22.30;46.57;101765.84;4946542;28;20056;-80
2023/09/06 01:19:06;;;;;;;11.55;7.78;;;;;;;22.16;46.52;101737.72;4944457;28;20444;-79
2023/09/06 01:21:44;;;;;;;15.77;7.20;;;;;;;22.01;46.96;101717.97;4957151;28;20054;-81
2023/09/06 01:24:12;;;;;;;14.40;7.63;;;;;;;22.06;46.74;101721.78;4970362;28;20620;-80
2023/09/06 01:26:39;;;;;;;9.05;6.68;;;;;;;21.96;46.91;101735.56;5000841;28;20071;-78
2023/09/06 01:29:06;;;;;;;14.65;7.30;;;;;;;22.11;47.09;101767.19;4985574;28;20302;-79
2023/09/06 01:31:33;;;;;;;9.75;6.90;;;;;;;22.18;46.78;101770.84;4937084;28;20377;-79
2023/09/06 01:34:00;;;;;;;13.57;7.72;;;;;;;22.14;46.87;101739.81;4966186;28;20413;-81
2023/09/06 01:36:28;;;;;;;16.83;7.93;;;;;;;22.28;46.64;101752.53;4993217;28;20398;-80
2023/09/06 01:38:55;;;;;;;13.32;8.48;;;;;;;22.04;47.20;101745.50;4950443;28;20072;-79
2023/09/06 01:41:22;;;;;;;18.15;8.15;;;;;;;21.97;47.56;101764.31;4982574;28;20092;-79
2023/09/06 01:43:53;;;;;;;15.55;8.15;;;;;;;21.58;47.28;101683.41;4982222;28;20119;-79
2023/09/06 01:46:24;;;;;;;17.90;8.55;;;;;;;21.94;47.11;101734.06;4975191;28;20482;-78
2023/09/06 01:48:51;;;;;;;10.63;7.32;;;;;;;22.02;47.15;101742.13;4976459;28;20118;-80
2023/09/06 01:51:18;;;;;;;21.73;8.10;;;;;;;21.96;47.59;101738.28;4982328;28;20505;-79
2023/09/06 01:53:45;;;;;;;17.27;8.57;;;;;;;21.08;47.28;101615.44;4974579;28;20049;-79
2023/09/06 01:56:13;;;;;;;14.15;7.68;;;;;;;21.93;47.35;101749.47;4983447;28;20386;-79
2023/09/06 01:58:40;;;;;;;13.32;7.50;;;;;;;21.95;47.27;101746.59;4977491;28;20053;-80
2023/09/06 02:01:07;;;;;;;14.65;7.47;;;;;;;21.64;47.64;101706.16;4978878;28;20057;-78
2023/09/06 02:03:38;;;;;;;13.33;8.13;;;;;;;21.63;47.59;101710.72;4994781;28;20247;-80
2023/09/06 02:06:05;;;;;;;9.18;6.93;;;;;;;21.92;47.46;101746.97;4976783;28;20386;-80
2023/09/06 02:08:32;;;;;;;13.80;7.55;;;;;;;21.84;47.37;101726.22;4976821;28;20723;-79
2023/09/06 02:10:59;;;;;;;14.95;7.68;;;;;;;21.66;47.53;101714.94;4985431;28;20497;-81
2023/09/06 02:13:26;;;;;;;14.77;8.38;;;;;;;21.70;47.42;101716.22;4976150;28;20077;-80
2023/09/06 02:15:56;;;;;;;16.42;8.18;;;;;;;21.81;47.61;101745.53;4965962;28;20049;-81
2023/09/06 02:18:27;;;;;;;13.98;7.15;;;;;;;21.70;47.58;101725.19;4979505;28;20482;-79
2023/09/06 02:20:55;;;;;;;13.70;7.53;;;;;;;21.83;47.46;101742.66;4951418;28;20389;-78
2023/09/06 02:23:22;;;;;;;12.63;7.30;;;;;;;21.84;47.51;101749.72;4973824;28;20075;-79
2023/09/06 02:25:52;;;;;;;13.85;7.80;;;;;;;21.79;47.50;101736.75;4981838;28;20060;-80
2023/09/06 02:28:18;;;;;;;12.65;6.90;;;;;;;21.73;47.62;101734.78;4988286;28;20151;-79
2023/09/06 02:30:46;;;;;;;10.77;7.10;;;;;;;21.60;47.77;101727.28;4984656;28;20061;-81
2023/09/06 02:33:14;;;;;;;13.52;7.00;;;;;;;21.83;47.57;101743.47;4972233;28;20054;-79
2023/09/06 02:35:41;;;;;;;13.48;8.23;;;;;;;21.94;47.07;101747.59;4964692;28;20045;-78
2023/09/06 02:38:13;;;;;;;13.75;7.97;;;;;;;21.34;47.32;101662.84;4962523;28;20524;-80
2023/09/06 02:40:43;;;;;;;12.35;7.63;;;;;;;21.72;47.68;101736.66;4964066;28;20042;-77
2023/09/06 02:43:10;;;;;;;16.77;8.05;;;;;;;21.83;47.26;101746.19;4978757;28;20569;-81
2023/09/06 02:45:38;;;;;;;14.20;7.90;;;;;;;21.48;47.69;101697.19;4980507;28;20045;-78
2023/09/06 02:48:13;;;;;;;16.38;8.32;;;;;;;21.41;47.73;101674.63;4942561;28;20068;-80
2023/09/06 02:50:40;;;;;;;16.92;7.75;;;;;;;21.59;47.59;101697.78;4960515;28;20053;-79
2023/09/06 02:53:26;;;;;;;14.23;8.10;;;;;;;21.70;47.28;101710.81;4991564;28;20453;-81
2023/09/06 02:55:57;;;;;;;15.40;7.88;;;;;;;21.76;47.83;101737.97;4983976;28;20053;-81
2023/09/06 02:58:24;;;;;;;11.50;7.15;;;;;;;21.64;47.57;101700.75;4983004;28;20156;-81
2023/09/06 03:00:57;;;;;;;12.90;8.23;;;;;;;21.47;47.38;101681.97;4972295;28;20053;-79
2023/09/06 03:03:26;;;;;;;10.90;7.05;;;;;;;21.81;47.49;101745.53;4982725;28;20064;-79
2023/09/06 03:05:58;;;;;;;11.15;8.30;;;;;;;21.87;47.55;101752.91;4969910;28;20137;-80
2023/09/06 03:08:27;;;;;;;15.55;8.25;;;;;;;21.33;47.37;101661.13;4979193;28;20045;-81
2023/09/06 03:10:57;;;;;;;20.55;8.30;;;;;;;21.80;47.36;101722.22;4975038;28;20569;-81
2023/09/06 03:13:24;;;;;;;12.75;6.68;;;;;;;21.74;47.93;101733.75;4981265;28;20049;-80
2023/09/06 03:15:51;;;;;;;18.60;8.10;;;;;;;21.71;47.92;101744.94;4972635;28;20049;-80
2023/09/06 03:18:22;;;;;;;13.35;7.38;;;;;;;21.39;48.04;101683.91;4981981;28;20054;-80
2023/09/06 03:20:49;;;;;;;19.30;7.80;;;;;;;21.68;48.26;101726.41;4978760;28;20053;-81
2023/09/06 03:23:19;;;;;;;14.75;8.45;;;;;;;21.60;47.57;101677.81;4981555;28;20438;-81
2023/09/06 03:25:57;;;;;;;14.80;7.45;;;;;;;21.76;48.04;101726.31;4981907;28;20053;-80
2023/09/06 03:28:28;;;;;;;15.60;7.65;;;;;;;21.64;47.71;101717.81;4982722;28;20218;-81
2023/09/06 03:30:58;;;;;;;12.38;8.02;;;;;;;21.63;47.95;101704.50;4976813;28;20053;-80
2023/09/06 03:33:27;;;;;;;13.38;7.68;;;;;;;21.42;48.12;101667.34;4994778;28;20041;-79
2023/09/06 03:35:54;;;;;;;14.23;7.68;;;;;;;21.59;48.20;101713.97;4984967;28;20463;-79
2023/09/06 03:38:25;;;;;;;11.73;7.18;;;;;;;21.62;48.35;101713.59;4977901;28;20072;-79
2023/09/06 03:40:55;;;;;;;15.38;8.18;;;;;;;21.61;48.63;101718.19;4980149;28;20067;-81
2023/09/06 03:43:30;;;;;;;17.15;8.32;;;;;;;21.29;48.46;101674.19;4980942;28;20052;-79
2023/09/06 03:45:59;;;;;;;15.73;7.65;;;;;;;21.47;48.52;101700.88;4985284;28;20575;-78
2023/09/06 03:48:27;;;;;;;12.38;7.53;;;;;;;21.62;48.67;101719.84;5002639;28;20056;-81
2023/09/06 03:51:01;;;;;;;13.70;7.72;;;;;;;21.72;48.56;101714.19;4990427;28;20489;-80
2023/09/06 03:53:29;;;;;;;12.93;7.68;;;;;;;21.33;48.68;101667.38;4982507;28;20136;-81
2023/09/06 03:55:57;;;;;;;14.20;8.07;;;;;;;21.38;48.51;101677.63;4981841;28;20554;-80
2023/09/06 03:58:29;;;;;;;15.07;7.22;;;;;;;21.54;48.64;101707.25;4985444;28;20412;-80
2023/09/06 04:00:57;;;;;;;18.38;7.88;;;;;;;21.28;48.98;101672.47;4983218;28;20835;-81
2023/09/06 04:03:30;;;;;;;16.08;8.25;;;;;;;21.62;48.65;101724.41;4999641;28;20061;-80
2023/09/06 04:05:57;;;;;;;17.48;8.20;;;;;;;21.46;49.10;101704.63;4984158;28;20045;-80
2023/09/06 04:08:28;;;;;;;12.77;7.22;;;;;;;20.96;49.14;101626.84;5003252;28;20045;-79
2023/09/06 04:10:56;;;;;;;15.95;7.70;;;;;;;21.62;48.73;101713.59;4977300;28;20085;-81
2023/09/06 04:13:23;;;;;;;13.88;7.65;;;;;;;21.58;48.89;101712.28;4985263;28;20693;-79
2023/09/06 04:15:50;;;;;;;14.48;8.02;;;;;;;21.54;49.11;101718.06;5004189;28;20544;-79
2023/09/06 04:18:18;;;;;;;16.35;7.85;;;;;;;21.28;49.17;101690.53;5000028;28;20412;-80
2023/09/06 04:20:46;;;;;;;14.60;8.27;;;;;;;21.43;49.62;101717.63;4984055;28;20150;-80
2023/09/06 04:23:14;;;;;;;15.45;6.90;;;;;;;21.44;49.49;101714.78;4970911;28;21038;-79
2023/09/06 04:25:41;;;;;;;15.15;8.05;;;;;;;21.45;49.27;101710.19;4963881;28;20118;-80
2023/09/06 04:28:10;;;;;;;17.38;8.73;;;;;;;21.43;49.31;101715.78;4995699;28;20617;-80
2023/09/06 04:30:40;;;;;;;14.93;8.02;;;;;;;21.39;49.37;101700.97;4981472;28;20483;-80
2023/09/06 04:33:15;;;;;;;17.27;8.57;;;;;;;21.29;49.05;101686.84;4976949;28;20092;-80
2023/09/06 04:35:44;;;;;;;11.90;8.23;;;;;;;21.18;49.42;101689.94;4962278;28;20054;-81
2023/09/06 04:38:19;;;;;;;16.15;8.00;;;;;;;21.35;49.60;101721.22;4976064;28;20042;-80
2023/09/06 04:40:47;;;;;;;17.02;7.78;;;;;;;21.44;49.31;101719.34;4980329;28;20537;-81
2023/09/06 04:43:18;;;;;;;15.95;8.18;;;;;;;21.44;49.26;101717.47;4978877;28;20077;-80
2023/09/06 04:45:49;;;;;;;13.07;9.18;;;;;;;21.39;49.38;101719.00;4976073;28;20691;-81
2023/09/06 04:48:18;;;;;;;20.77;7.70;;;;;;;21.31;49.34;101695.56;4960818;28;20053;-82
2023/09/06 04:50:46;;;;;;;12.95;7.75;;;;;;;21.38;49.47;101728.94;4948322;28;20338;-78
2023/09/06 04:53:17;;;;;;;18.80;9.20;;;;;;;20.87;49.03;101634.16;4967398;28;20056;-80
2023/09/06 04:55:46;;;;;;;14.90;8.45;;;;;;;21.38;49.33;101718.16;4971456;28;20489;-82
2023/09/06 04:58:13;;;;;;;12.30;7.53;;;;;;;21.28;49.55;101712.16;4980577;28;20077;-80
2023/09/06 05:00:47;;;;;;;13.60;7.97;;;;;;;21.29;49.85;101724.66;4998056;28;20438;-79
2023/09/06 05:03:17;;;;;;;16.20;8.25;;;;;;;21.06;49.63;101686.81;4975321;28;20145;-80
2023/09/06 05:05:47;;;;;;;13.50;7.85;;;;;;;21.29;50.00;101721.94;4975265;28;20275;-80
2023/09/06 05:08:14;;;;;;;18.73;8.48;;;;;;;21.25;49.63;101705.25;4983741;28;20061;-78
2023/09/06 05:10:41;;;;;;;11.15;7.15;;;;;;;21.33;50.02;101728.66;4975409;28;20585;-81
2023/09/06 05:13:11;;;;;;;24.58;8.50;;;;;;;21.32;49.56;101710.78;4974587;28;20064;-80
2023/09/06 05:15:38;;;;;;;19.80;8.23;;;;;;;21.42;49.71;101734.88;4973654;28;20050;-80
2023/09/06 05:18:07;;;;;;;15.75;7.88;;;;;;;21.39;49.63;101733.38;4981839;28;20050;-79
2023/09/06 05:20:39;;;;;;;15.13;8.10;;;;;;;20.99;50.00;101659.69;4979380;28;20049;-80
2023/09/06 05:23:11;;;;;;;17.30;8.25;;;;;;;21.58;49.14;101725.78;4972090;28;20046;-79
2023/09/06 05:25:40;;;;;;;10.43;7.85;;;;;;;21.48;49.56;101731.44;4981760;28;20046;-81
2023/09/06 05:28:15;;;;;;;13.10;7.78;;;;;;;20.70;49.88;101610.00;4976969;28;20403;-78
2023/09/06 05:30:45;;;;;;;10.35;7.75;;;;;;;21.44;49.86;101711.22;4973915;28;20046;-80
2023/09/06 05:33:19;;;;;;;14.15;8.85;;;;;;;21.47;48.67;101694.66;4962513;28;20057;-80
2023/09/06 05:35:56;;;;;;;18.80;8.77;;;;;;;21.27;49.13;101675.38;4962205;28;20054;-80
2023/09/06 05:38:25;;;;;;;18.15;8.27;;;;;;;21.51;49.30;101718.44;4968587;28;20404;-79
2023/09/06 05:40:57;;;;;;;15.25;8.73;;;;;;;21.69;48.96;101725.38;4954047;28;20051;-80
2023/09/06 05:43:24;;;;;;;15.52;8.93;;;;;;;21.25;48.99;101650.41;4966446;28;20062;-78
2023/09/06 05:45:51;;;;;;;21.45;8.68;;;;;;;21.71;48.72;101723.31;4985371;28;20050;-78
2023/09/06 05:48:17;;;;;;;18.35;8.98;;;;;;;21.60;48.97;101710.25;4978107;28;20879;-80
2023/09/06 05:50:45;;;;;;;17.17;7.88;;;;;;;21.64;49.17;101725.06;4976110;28;20357;-78
2023/09/06 05:53:12;;;;;;;17.02;9.70;;;;;;;21.63;49.67;101731.50;4979125;28;20133;-75
2023/09/06 05:55:39;;;;;;;14.35;8.27;;;;;;;21.74;49.28;101722.94;4985910;28;20428;-76
2023/09/06 05:58:05;;;;;;;23.30;9.18;;;;;;;21.60;49.59;101715.66;4976476;28;20444;-78
2023/09/06 06:00:34;;;;;;;16.42;8.80;;;;;;;21.76;49.49;101732.56;4979742;28;20093;-77
2023/09/06 06:03:06;;;;;;;21.65;8.27;;;;;;;21.86;48.87;101729.59;4976247;28;20204;-79
2023/09/06 06:05:33;;;;;;;31.38;8.68;;;;;;;21.83;49.29;101721.03;4986679;28;20056;-79
2023/09/06 06:08:00;;;;;;;14.60;8.45;;;;;;;21.76;49.34;101710.94;4976519;28;20046;-79
2023/09/06 06:10:35;;;;;;;18.83;8.43;;;;;;;21.89;49.10;101726.50;4983301;28;20053;-78
2023/09/06 06:13:04;;;;;;;22.65;8.75;;;;;;;21.87;48.83;101715.06;4982752;28;20056;-78
2023/09/06 06:15:34;;;;;;;16.90;8.07;;;;;;;21.90;48.74;101717.41;4983848;28;20409;-79
2023/09/06 06:18:02;;;;;;;15.43;8.82;;;;;;;21.88;48.69;101714.03;4975651;28;20077;-79
2023/09/06 06:20:29;;;;;;;19.90;8.93;;;;;;;21.90;48.73;101694.94;4973659;28;20050;-79
2023/09/06 06:23:10;;;;;;;23.52;9.23;;;;;;;22.01;48.69;101717.97;4965920;28;20092;-79
2023/09/06 06:25:46;;;;;;;13.45;8.27;;;;;;;22.16;48.78;101730.50;4982076;28;20386;-79
2023/09/06 06:28:30;;;;;;;15.60;8.35;;;;;;;21.98;48.53;101698.38;4944156;28;20179;-78
2023/09/06 06:34:45;;;;;;;16.65;7.97;;;;;;;22.40;47.72;101731.25;4983658;28;20439;-78
2023/09/06 06:37:11;;;;;;;25.13;8.93;;;;;;;22.20;47.90;101695.81;4982067;28;20045;-79
2023/09/06 06:39:38;;;;;;;18.48;9.95;;;;;;;22.46;47.44;101727.81;4977102;28;20625;-78
2023/09/06 06:42:08;;;;;;;23.40;9.23;;;;;;;22.46;47.47;101721.56;4964311;28;20074;-77
2023/09/06 06:44:35;;;;;;;23.08;8.32;;;;;;;22.51;47.37;101733.50;4986353;28;20053;-78
2023/09/06 06:47:04;;;;;;;16.00;8.38;;;;;;;22.49;47.59;101738.25;4986884;28;20089;-77
2023/09/06 06:49:31;;;;;;;17.75;9.02;;;;;;;22.57;47.76;101742.72;4994961;28;20145;-78
2023/09/06 06:52:02;;;;;;;23.60;9.00;;;;;;;22.68;47.60;101742.25;4974161;28;20054;-78
2023/09/06 06:54:39;;;;;;;14.15;8.93;;;;;;;22.53;47.45;101719.78;4976002;28;20084;-78
2023/09/06 06:57:12;;;;;;;18.52;9.00;;;;;;;22.68;47.86;101739.53;4969014;28;20054;-78
2023/09/06 06:59:41;;;;;;;14.50;8.85;;;;;;;22.71;47.72;101733.75;4976585;28;20053;-79
2023/09/06 07:02:15;;;;;;;15.70;9.02;;;;;;;22.80;47.34;101748.03;4977613;28;20561;-78
2023/09/06 07:04:42;;;;;;;12.23;8.40;;;;;;;22.88;47.44;101750.59;4983715;28;20140;-78
2023/09/06 07:07:10;;;;;;;14.48;9.65;;;;;;;22.83;47.26;101732.22;4970865;28;20056;-79
2023/09/06 07:09:38;;;;;;;20.17;8.85;;;;;;;22.77;48.00;101751.13;4974789;28;20053;-78
2023/09/06 07:12:05;;;;;;;15.88;9.00;;;;;;;22.64;47.66;101724.69;4977814;28;20042;-76
2023/09/06 07:14:32;;;;;;;18.75;9.35;;;;;;;22.81;48.11;101753.22;4977874;28;20058;-79
2023/09/06 07:17:07;;;;;;;13.45;8.75;;;;;;;22.95;47.43;101761.53;4980396;28;20079;-78
2023/09/06 07:19:41;;;;;;;15.20;8.77;;;;;;;22.85;48.51;101748.28;5001428;28;20049;-77
2023/09/06 07:22:08;;;;;;;18.02;10.35;;;;;;;22.90;48.20;101739.59;4978594;28;20076;-78
2023/09/06 07:24:35;;;;;;;17.73;9.70;;;;;;;23.00;47.99;101751.00;4982518;28;20085;-78
2023/09/06 07:27:03;;;;;;;13.88;8.65;;;;;;;22.99;48.64;101765.56;4960847;28;20051;-79
2023/09/06 07:29:34;;;;;;;18.85;9.80;;;;;;;22.95;48.61;101770.47;4966557;28;20050;-79
2023/09/06 07:32:04;;;;;;;19.00;8.52;;;;;;;22.82;48.79;101735.97;4988024;28;20053;-79
2023/09/06 07:34:32;;;;;;;22.08;9.98;;;;;;;22.92;49.02;101741.09;4967067;28;20077;-79
2023/09/06 07:37:00;;;;;;;15.93;8.93;;;;;;;23.03;48.89;101750.59;4965028;28;20057;-79
2023/09/06 07:39:29;;;;;;;21.15;8.52;;;;;;;23.02;49.12;101732.69;4977920;28;20042;-80
2023/09/06 07:42:03;;;;;;;20.73;9.23;;;;;;;23.18;48.39;101723.47;4964049;28;20338;-78
2023/09/06 07:44:32;;;;;;;17.67;9.82;;;;;;;23.38;48.10;101743.47;5007433;28;20080;-78
2023/09/06 07:47:03;;;;;;;14.20;9.45;;;;;;;23.33;47.97;101723.44;4987763;28;20516;-79
2023/09/06 07:49:37;;;;;;;31.10;10.60;;;;;;;23.43;48.12;101753.75;4964965;28;20064;-80
2023/09/06 07:52:05;;;;;;;24.40;9.82;;;;;;;23.52;48.25;101752.59;4984772;28;20052;-79
2023/09/06 07:54:32;;;;;;;19.73;10.88;;;;;;;23.53;48.70;101756.13;4998893;28;20049;-80
2023/09/06 07:57:02;;;;;;;16.73;9.75;;;;;;;23.54;48.47;101747.78;4986981;28;20779;-80
2023/09/06 07:59:29;;;;;;;17.95;9.27;;;;;;;23.40;48.68;101738.72;4976908;28;20068;-80
2023/09/06 08:01:56;;;;;;;24.70;11.70;;;;;;;23.34;49.59;101714.25;4959563;28;20450;-79
2023/09/06 08:04:28;;;;;;;18.55;11.57;;;;;;;23.62;49.29;101746.84;4976944;28;20455;-80
2023/09/06 08:07:01;;;;;;;24.98;8.48;;;;;;;23.54;51.80;101739.66;4965727;28;20045;-79
2023/09/06 08:09:32;;;;;;;20.55;10.25;;;;;;;23.62;53.09;101744.97;4964311;28;20061;-80
2023/09/06 08:11:59;;;;;;;14.30;9.20;;;;;;;23.33;52.67;101669.25;4957186;28;20230;-80
2023/09/06 08:14:26;;;;;;;20.67;7.90;;;;;;;24.07;57.70;101753.69;4956590;28;20053;-79
2023/09/06 08:16:53;;;;;;;16.13;10.77;;;;;;;24.22;51.36;101760.88;4967659;28;20531;-78
2023/09/06 08:19:20;;;;;;;17.23;10.93;;;;;;;24.12;50.26;101735.97;4977859;28;20042;-76
2023/09/06 08:21:48;;;;;;;17.33;8.63;;;;;;;24.19;50.68;101751.25;4983391;28;20128;-79
2023/09/06 08:24:19;;;;;;;14.05;9.60;;;;;;;24.15;50.29;101757.28;4982677;28;20412;-79
2023/09/06 08:26:48;;;;;;;21.40;8.63;;;;;;;24.28;54.33;101751.94;4971905;28;20041;-79
2023/09/06 08:29:14;;;;;;;25.38;10.30;;;;;;;24.00;51.36;101720.25;4984075;28;20396;-78
2023/09/06 08:31:41;;;;;;;16.17;9.05;;;;;;;24.15;51.45;101755.38;4966269;28;20057;-79
2023/09/06 08:34:10;;;;;;;21.73;10.38;;;;;;;23.89;50.52;101731.66;4985174;28;20291;-78
2023/09/06 08:36:38;;;;;;;13.40;8.35;;;;;;;24.25;53.91;101757.78;4984436;28;20553;-78
2023/09/06 08:39:06;;;;;;;16.13;11.18;;;;;;;24.39;49.93;101758.69;4978010;28;20758;-80
2023/09/06 08:41:33;;;;;;;20.52;10.43;;;;;;;24.40;51.47;101763.91;4996646;28;20046;-78
2023/09/06 08:44:03;;;;;;;13.98;9.05;;;;;;;24.46;51.65;101776.69;4989658;28;20041;-81
2023/09/06 08:46:34;;;;;;;16.75;10.57;;;;;;;24.49;50.14;101762.75;5006243;28;20042;-80
2023/09/06 08:49:05;;;;;;;15.93;11.15;;;;;;;24.50;50.20;101769.84;4970045;28;20482;-79
2023/09/06 08:51:35;;;;;;;17.20;9.07;;;;;;;24.44;52.27;101770.63;4988426;28;20061;-78
2023/09/06 08:54:04;;;;;;;13.40;10.15;;;;;;;24.40;51.24;101763.09;5002126;28;20054;-78
2023/09/06 08:56:35;;;;;;;15.18;8.13;;;;;;;24.41;52.30;101768.28;4979046;28;20069;-78
2023/09/06 08:59:02;;;;;;;18.90;11.05;;;;;;;24.46;51.41;101774.00;4982806;28;20528;-78
2023/09/06 09:01:30;;;;;;;10.57;7.82;;;;;;;24.55;52.73;101765.69;5000411;28;20144;-77
2023/09/06 09:03:57;;;;;;;20.00;10.90;;;;;;;24.55;51.65;101733.97;4998156;28;20057;-79
2023/09/06 09:06:29;;;;;;;17.70;10.27;;;;;;;24.71;51.01;101766.19;4989885;28;20508;-80
2023/09/06 09:09:13;;;;;;;15.70;10.85;;;;;;;24.63;51.16;101735.66;5010627;28;20049;-78
2023/09/06 09:11:51;;;;;;;17.00;9.77;;;;;;;24.86;51.20;101774.19;4997355;28;20163;-79
2023/09/06 09:14:26;;;;;;;15.48;10.38;;;;;;;24.57;51.94;101714.78;4985561;28;20058;-79
2023/09/06 09:16:58;;;;;;;11.55;8.10;;;;;;;25.01;54.33;101771.31;4990067;28;20433;-79
2023/09/06 09:19:26;;;;;;;17.92;10.48;;;;;;;25.17;52.24;101764.69;4978404;28;20150;-78
2023/09/06 09:21:56;;;;;;;13.10;9.68;;;;;;;25.09;53.57;101749.41;4989122;28;20050;-77
2023/09/06 09:24:29;;;;;;;12.07;7.47;;;;;;;25.33;54.85;101750.75;4990080;28;20088;-78
2023/09/06 09:26:58;;;;;;;13.95;8.95;;;;;;;25.47;52.54;101754.31;4996453;28;20103;-78
2023/09/06 09:29:27;;;;;;;9.23;7.35;;;;;;;25.66;55.16;101755.38;4973606;28;20057;-79
2023/09/06 09:32:02;;;;;;;13.30;9.23;;;;;;;25.60;53.84;101737.19;4971316;28;20058;-79
2023/09/06 09:34:29;;;;;;;14.90;10.52;;;;;;;25.71;50.75;101733.00;4991279;28;20049;-78
2023/09/06 09:36:56;;;;;;;11.05;7.78;;;;;;;25.90;52.23;101759.41;4967457;28;20107;-78
2023/09/06 09:39:26;;;;;;;10.52;7.45;;;;;;;26.09;53.24;101748.69;4961235;28;20249;-80
2023/09/06 09:42:00;;;;;;;13.00;9.48;;;;;;;25.97;52.50;101711.25;4978852;28;20045;-77
2023/09/06 09:44:33;;;;;;;13.73;8.63;;;;;;;26.34;51.89;101735.25;4983744;28;20056;-80
2023/09/06 09:47:12;;;;;;;11.47;7.53;;;;;;;26.43;52.38;101744.84;4983176;28;20304;-80
2023/09/06 09:50:01;;;;;;;13.73;9.77;;;;;;;26.56;49.66;101744.84;4991736;28;20343;-78
2023/09/06 09:52:30;;;;;;;10.70;8.77;;;;;;;26.48;48.46;101700.63;4983055;28;20446;-78
2023/09/06 09:55:02;;;;;;;12.20;8.88;;;;;;;26.75;49.79;101723.16;4974174;28;20080;-77
2023/09/06 09:57:31;;;;;;;17.15;9.25;;;;;;;26.95;49.44;101745.72;4971293;28;20425;-79
2023/09/06 09:59:58;;;;;;;13.00;10.00;;;;;;;26.96;48.37;101731.03;4977065;28;20049;-78
2023/09/06 10:02:28;;;;;;;14.02;8.60;;;;;;;27.01;48.90;101736.66;4970254;28;20049;-79
2023/09/06 10:05:08;;;;;;;12.25;7.95;;;;;;;27.20;50.22;101747.69;4976549;28;20484;-80
2023/09/06 10:07:36;;;;;;;10.18;8.50;;;;;;;27.30;49.29;101745.31;4973040;28;20441;-80
2023/09/06 10:10:18;;;;;;;12.60;8.70;;;;;;;27.19;48.71;101689.63;4968108;28;20757;-82
2023/09/06 10:12:51;;;;;;;10.40;8.57;;;;;;;27.49;46.64;101747.06;4997539;28;20059;-79
2023/09/06 10:15:23;;;;;;;19.70;8.63;;;;;;;27.40;47.03;101715.66;4966812;28;20045;-80
2023/09/06 10:17:52;;;;;;;11.02;8.60;;;;;;;27.59;45.98;101730.19;4984109;28;20061;-79
2023/09/06 10:20:26;;;;;;;12.48;8.45;;;;;;;27.75;45.59;101725.25;4996557;28;20055;-80
2023/09/06 10:22:56;;;;;;;18.33;8.88;;;;;;;27.86;45.59;101722.66;4971259;28;20233;-79
2023/09/06 10:25:26;;;;;;;17.00;9.85;;;;;;;27.85;45.38;101706.50;4994031;28;20902;-80
2023/09/06 10:27:57;;;;;;;18.52;8.82;;;;;;;27.95;46.88;101717.75;4976552;28;20596;-79
2023/09/06 10:30:43;;;;;;;13.40;8.20;;;;;;;28.04;45.49;101718.31;5001205;28;20129;-77
2023/09/06 10:33:31;;;;;;;10.82;7.35;;;;;;;28.19;44.93;101716.03;4960533;28;20481;-79
2023/09/06 10:36:02;;;;;;;12.77;7.97;;;;;;;28.10;46.85;101687.34;4976716;28;20283;-79
2023/09/06 10:38:30;;;;;;;10.13;8.48;;;;;;;28.23;47.26;101709.06;4997281;28;20193;-82
2023/09/06 10:41:07;;;;;;;14.82;9.23;;;;;;;28.38;44.26;101705.13;5002541;28;20544;-79
2023/09/06 10:44:15;;;;;;;16.80;8.73;;;;;;;28.38;47.47;101694.19;5002055;28;20052;-79
2023/09/06 10:46:42;;;;;;;12.13;8.15;;;;;;;28.68;45.34;101716.94;4882962;29;20055;-80
2023/09/06 10:49:25;;;;;;;12.75;7.53;;;;;;;28.51;45.78;101683.94;4953599;28;20576;-79
2023/09/06 10:52:10;;;;;;;13.70;8.90;;;;;;;28.59;42.57;101701.91;4981413;28;20047;-80
2023/09/06 10:54:43;;;;;;;10.88;8.90;;;;;;;28.71;43.77;101711.00;5005462;28;20681;-78
2023/09/06 10:57:12;;;;;;;10.38;8.05;;;;;;;28.88;44.53;101710.38;4978844;28;20042;-79
2023/09/06 10:59:43;;;;;;;10.60;7.90;;;;;;;28.85;42.70;101699.91;4983256;28;20053;-79
2023/09/06 11:02:19;;;;;;;14.18;8.60;;;;;;;28.47;42.64;101622.69;4986611;28;20088;-79
2023/09/06 11:04:49;;;;;;;10.52;8.27;;;;;;;28.81;43.88;101687.75;4988343;28;20248;-78
2023/09/06 11:07:16;;;;;;;12.27;7.38;;;;;;;28.92;43.28;101673.31;4987029;28;20076;-80
2023/09/06 11:09:50;;;;;;;10.85;7.85;;;;;;;28.84;42.36;101649.06;4992919;28;20289;-80
2023/09/06 11:12:29;;;;;;;12.07;7.45;;;;;;;29.11;44.96;101672.22;4982373;28;20497;-77
2023/09/06 11:15:09;;;;;;;10.30;8.20;;;;;;;29.07;44.53;101649.13;4960600;28;20296;-80
2023/09/06 11:17:42;;;;;;;11.05;8.02;;;;;;;29.24;44.17;101686.75;4977662;28;20344;-79
2023/09/06 11:20:14;;;;;;;10.43;7.68;;;;;;;29.33;44.34;101663.47;4937668;28;20038;-80
2023/09/06 11:22:58;;;;;;;11.15;6.85;;;;;;;29.46;44.59;101681.53;4992901;28;20119;-79
2023/09/06 11:25:33;;;;;;;7.97;7.18;;;;;;;29.43;45.57;101669.16;5002183;28;20340;-75
2023/09/06 11:28:16;;;;;;;10.20;8.30;;;;;;;29.64;43.62;101670.50;4979163;28;20124;-77
2023/09/06 11:30:47;;;;;;;11.68;7.43;;;;;;;29.79;44.53;101675.50;4964899;28;20118;-79
2023/09/06 11:33:16;;;;;;;9.77;7.63;;;;;;;29.18;43.64;101610.06;4961288;28;20108;-79
2023/09/06 11:35:56;;;;;;;18.40;8.77;;;;;;;29.51;42.10;101635.97;4951845;28;20049;-78